Trommald, Minnesota
Current Conditions -  °F | °C
As of 7:14 PM on Friday 24 Oct 2014 (Local Time) from KAIT Reporting Station
Clear Clear  
Wind Chill: 64°   Ceiling: Unl
Heat Index: 64°   Visibility: 10mi
Dew Point: 39°   Wind: 6mph
Humidity: 40%   Direction: 230°SW
Pressure: 29.78"   Gusts: NA
Location:  46.6149°N, 93.9625°W
Report Text: KAIT 250014Z AUTO 23005KT 10SM CLR 18/04 A2978 RMK AO2
Loading
Personal Weather Stations






























Interactive Weather Map
Tropical Storm Tracking
New forecast layout! Learn more

10-Day Weather Forecast

Advertisements
Track Severe Weather on mobile